Time;durP1;ratioP1;P1;durP2;ratioP2;P2;SDS_P1;SDS_P2;PMS_P1;PMS_P2;Temp;Humidity;BMP_temperature;BMP_pressure;BME280_temperature;BME280_humidity;BME280_pressure;Samples;Min_cycle;Max_cycle;Signal;HPM_P1;HPM_P2
2021/06/16 00:00:36;;;;;;;1.88;1.67;;;25.50;43.20;;;;;;5047897;28;20080;-62
2021/06/16 00:03:04;;;;;;;2.35;1.85;;;25.40;43.20;;;;;;5048711;28;20136;-63
2021/06/16 00:05:31;;;;;;;1.17;1.17;;;25.40;43.20;;;;;;5048299;28;20127;-62
2021/06/16 00:07:59;;;;;;;1.80;1.70;;;25.50;43.20;;;;;;5048414;28;20084;-62
2021/06/16 00:10:31;;;;;;;2.00;1.80;;;25.40;43.20;;;;;;5048377;28;20052;-62
2021/06/16 00:12:59;;;;;;;1.58;1.48;;;25.40;43.20;;;;;;5048300;28;20084;-62
2021/06/16 00:15:30;;;;;;;1.73;1.63;;;25.40;43.20;;;;;;5046632;28;20045;-63
2021/06/16 00:17:57;;;;;;;3.15;1.90;;;25.40;43.20;;;;;;5048064;28;20581;-62
2021/06/16 00:20:25;;;;;;;1.80;1.58;;;25.40;43.20;;;;;;5046529;28;20087;-62
2021/06/16 00:22:53;;;;;;;2.03;1.60;;;25.40;43.20;;;;;;5046684;28;20486;-62
2021/06/16 00:25:21;;;;;;;1.65;1.50;;;25.40;43.20;;;;;;5047439;28;20045;-62
2021/06/16 00:27:48;;;;;;;2.00;1.83;;;25.40;43.20;;;;;;5048108;28;20084;-62
2021/06/16 00:30:16;;;;;;;1.50;1.40;;;25.40;43.20;;;;;;5047283;28;20506;-62
2021/06/16 00:32:44;;;;;;;1.85;1.58;;;25.40;43.20;;;;;;5047801;28;20136;-63
2021/06/16 00:35:13;;;;;;;1.77;1.52;;;25.40;43.20;;;;;;5047527;28;20079;-62
2021/06/16 00:37:40;;;;;;;1.77;1.57;;;25.40;43.20;;;;;;5047695;28;20087;-62
2021/06/16 00:40:10;;;;;;;1.48;1.38;;;25.40;43.50;;;;;;5046596;28;20136;-62
2021/06/16 00:42:39;;;;;;;1.48;1.38;;;25.40;43.20;;;;;;5030098;28;20150;-62
2021/06/16 00:45:08;;;;;;;1.70;1.60;;;25.40;43.20;;;;;;5047943;28;20045;-63
2021/06/16 00:47:35;;;;;;;1.90;1.77;;;25.40;43.20;;;;;;5042903;28;20076;-62
2021/06/16 00:50:05;;;;;;;1.65;1.55;;;25.40;43.20;;;;;;5047237;28;20080;-62
2021/06/16 00:52:33;;;;;;;1.65;1.55;;;25.40;43.20;;;;;;5043413;28;20052;-62
2021/06/16 00:55:00;;;;;;;1.88;1.50;;;25.40;43.20;;;;;;5047188;28;20087;-62
2021/06/16 00:57:27;;;;;;;1.73;1.63;;;25.30;43.20;;;;;;5047588;28;20493;-62
2021/06/16 01:00:09;;;;;;;3.00;1.63;;;25.30;43.20;;;;;;5047242;28;20076;-62
2021/06/16 01:03:05;;;;;;;3.30;1.63;;;25.30;43.20;;;;;;5047063;28;20103;-62
2021/06/16 01:05:56;;;;;;;1.70;1.60;;;25.30;43.20;;;;;;5045815;28;20132;-63
2021/06/16 01:08:29;;;;;;;1.30;1.20;;;25.30;43.20;;;;;;5047252;28;20052;-62
2021/06/16 01:11:01;;;;;;;1.50;1.40;;;25.30;43.30;;;;;;5046649;28;20132;-62
2021/06/16 01:13:38;;;;;;;2.03;1.70;;;25.30;43.30;;;;;;5047138;28;20049;-63
2021/06/16 01:16:13;;;;;;;1.83;1.73;;;25.30;43.30;;;;;;5047112;28;20041;-62
2021/06/16 01:18:51;;;;;;;2.22;2.03;;;25.30;43.20;;;;;;5047217;28;20496;-62
2021/06/16 01:21:19;;;;;;;1.70;1.60;;;25.30;43.20;;;;;;5046609;28;20128;-62
2021/06/16 01:24:08;;;;;;;2.80;1.58;;;25.30;43.20;;;;;;5046806;28;20437;-62
2021/06/16 01:26:40;;;;;;;2.13;1.70;;;25.40;43.20;;;;;;5045628;28;20128;-63
2021/06/16 01:29:17;;;;;;;1.65;1.55;;;25.30;43.20;;;;;;5046679;28;20045;-62
2021/06/16 01:31:46;;;;;;;2.20;1.67;;;25.30;43.20;;;;;;5029143;28;20041;-62
2021/06/16 01:34:19;;;;;;;1.70;1.60;;;25.30;43.20;;;;;;5046586;28;20076;-62
2021/06/16 01:36:48;;;;;;;1.55;1.45;;;25.30;43.20;;;;;;5046300;28;20483;-62
2021/06/16 01:39:19;;;;;;;1.88;1.50;;;25.30;43.20;;;;;;5045407;28;20052;-63
2021/06/16 01:41:50;;;;;;;1.92;1.70;;;25.30;43.80;;;;;;5046846;28;20655;-63
2021/06/16 01:44:19;;;;;;;1.70;1.60;;;25.30;43.30;;;;;;5046569;28;20049;-63
2021/06/16 01:46:50;;;;;;;1.80;1.70;;;25.30;43.30;;;;;;5046084;28;20160;-62
2021/06/16 01:49:20;;;;;;;1.92;1.60;;;25.30;43.30;;;;;;5046894;28;20082;-63
2021/06/16 01:51:48;;;;;;;1.23;1.13;;;25.30;43.30;;;;;;5046256;28;20072;-62
2021/06/16 01:54:17;;;;;;;1.58;1.48;;;25.30;43.30;;;;;;5046570;28;20135;-62
2021/06/16 01:56:46;;;;;;;1.55;1.45;;;25.30;43.30;;;;;;5028591;28;20482;-62
2021/06/16 01:59:13;;;;;;;1.80;1.70;;;25.30;43.30;;;;;;5049941;28;20136;-62
2021/06/16 02:01:40;;;;;;;1.42;1.33;;;25.30;43.30;;;;;;5050480;28;20391;-62
2021/06/16 02:04:08;;;;;;;1.42;1.33;;;25.30;43.30;;;;;;5050658;28;20139;-62
2021/06/16 02:06:39;;;;;;;1.20;1.20;;;25.30;43.80;;;;;;5049571;28;20124;-63
2021/06/16 02:09:09;;;;;;;1.55;1.45;;;25.20;43.20;;;;;;5050145;28;20081;-62
2021/06/16 02:11:38;;;;;;;1.33;1.23;;;25.20;43.20;;;;;;5050136;28;20053;-62
2021/06/16 02:14:11;;;;;;;1.60;1.50;;;25.30;43.30;;;;;;5050825;28;20099;-62
2021/06/16 02:16:55;;;;;;;1.35;1.25;;;25.30;43.20;;;;;;5050045;28;20573;-62
2021/06/16 02:19:29;;;;;;;1.77;1.67;;;25.30;43.30;;;;;;5050453;28;20384;-62
2021/06/16 02:21:57;;;;;;;1.73;1.63;;;25.30;43.30;;;;;;5050110;28;20664;-62
2021/06/16 02:24:25;;;;;;;1.67;1.58;;;25.30;43.30;;;;;;5049848;28;20045;-62
2021/06/16 02:26:53;;;;;;;2.00;1.90;;;25.20;43.20;;;;;;5050022;28;20045;-62
2021/06/16 02:29:22;;;;;;;1.60;1.50;;;25.20;43.20;;;;;;5050304;28;20170;-65
2021/06/16 02:31:49;;;;;;;1.15;1.15;;;25.20;43.20;;;;;;5050078;28;20045;-62
2021/06/16 02:34:18;;;;;;;1.80;1.50;;;25.20;43.30;;;;;;5049866;28;20107;-62
2021/06/16 02:36:48;;;;;;;1.50;1.40;;;25.20;43.20;;;;;;5049974;28;20070;-62
2021/06/16 02:39:17;;;;;;;;;;;25.20;43.20;;;;;;5050034;28;20522;-62
2021/06/16 02:41:46;;;;;;;1.25;1.15;;;25.20;43.20;;;;;;5049583;28;20340;-62
2021/06/16 02:44:15;;;;;;;1.40;1.27;;;25.20;43.30;;;;;;5049887;28;20049;-62
2021/06/16 02:46:47;;;;;;;1.60;1.50;;;25.20;43.30;;;;;;5049808;28;20143;-62
2021/06/16 02:49:17;;;;;;;1.90;1.63;;;25.20;43.30;;;;;;5031631;28;20060;-62
2021/06/16 02:51:45;;;;;;;1.40;1.30;;;25.20;43.30;;;;;;5049491;28;20586;-62
2021/06/16 02:54:16;;;;;;;1.45;1.35;;;25.20;43.30;;;;;;5049545;28;20084;-62
2021/06/16 02:56:46;;;;;;;2.05;1.55;;;25.20;43.20;;;;;;5049733;28;20045;-62
2021/06/16 02:59:15;;;;;;;1.70;1.60;;;25.20;43.20;;;;;;5049444;28;20052;-62
2021/06/16 03:01:45;;;;;;;1.77;1.45;;;25.20;43.20;;;;;;5031696;28;20048;-62
2021/06/16 03:04:14;;;;;;;1.30;1.20;;;25.20;43.20;;;;;;5049333;28;20065;-62
2021/06/16 03:06:42;;;;;;;1.40;1.30;;;25.20;43.20;;;;;;5049167;28;20083;-62
2021/06/16 03:09:10;;;;;;;1.40;1.30;;;25.20;43.20;;;;;;5048391;28;20048;-62
2021/06/16 03:11:38;;;;;;;1.60;1.50;;;25.20;43.20;;;;;;5049502;28;20081;-62
2021/06/16 03:14:06;;;;;;;1.38;1.27;;;25.20;43.10;;;;;;5049209;28;20194;-62
2021/06/16 03:16:34;;;;;;;1.48;1.38;;;25.20;43.10;;;;;;5048647;28;20755;-62
2021/06/16 03:19:03;;;;;;;2.22;1.50;;;25.20;43.10;;;;;;5047551;28;20512;-62
2021/06/16 03:21:30;;;;;;;1.55;1.45;;;25.30;43.20;;;;;;5049528;28;20085;-63
2021/06/16 03:23:59;;;;;;;2.10;1.90;;;25.20;43.10;;;;;;5048447;28;20136;-62
2021/06/16 03:26:27;;;;;;;1.42;1.33;;;25.20;43.60;;;;;;5047838;28;20136;-62
2021/06/16 03:28:56;;;;;;;1.30;1.20;;;25.30;43.10;;;;;;5048765;28;20053;-62
2021/06/16 03:31:24;;;;;;;1.70;1.60;;;25.30;43.10;;;;;;5048553;28;20148;-62
2021/06/16 03:33:53;;;;;;;1.48;1.38;;;25.30;43.10;;;;;;5048678;28;20599;-62
2021/06/16 03:36:21;;;;;;;1.45;1.30;;;25.30;43.70;;;;;;5048695;28;20504;-62
2021/06/16 03:38:50;;;;;;;1.38;1.27;;;25.30;43.10;;;;;;5048345;28;20546;-62
2021/06/16 03:41:20;;;;;;;1.30;1.20;;;25.30;43.00;;;;;;5048287;28;20083;-62
2021/06/16 03:43:48;;;;;;;;;;;25.30;43.00;;;;;;5048942;28;20076;-62
2021/06/16 03:46:17;;;;;;;2.42;1.30;;;25.30;42.90;;;;;;5048794;28;19925;-62
2021/06/16 03:48:45;;;;;;;1.40;1.30;;;25.40;43.00;;;;;;5048261;28;20045;-62
2021/06/16 03:51:13;;;;;;;1.50;1.40;;;25.40;42.90;;;;;;5048594;28;20056;-62
2021/06/16 03:53:43;;;;;;;1.30;1.20;;;25.40;42.80;;;;;;5048085;28;20053;-62
2021/06/16 03:56:10;;;;;;;1.35;1.25;;;25.40;42.80;;;;;;5048584;28;20096;-62
2021/06/16 03:58:40;;;;;;;1.30;1.15;;;25.40;42.70;;;;;;5048401;28;20556;-62
2021/06/16 04:01:13;;;;;;;1.50;1.40;;;25.50;42.70;;;;;;5047976;28;20080;-62
2021/06/16 04:03:41;;;;;;;1.83;1.48;;;25.50;42.70;;;;;;5048235;28;20053;-62
2021/06/16 04:06:12;;;;;;;1.48;1.38;;;25.50;42.60;;;;;;5047851;28;20076;-62
2021/06/16 04:08:40;;;;;;;1.70;1.30;;;25.50;42.50;;;;;;5046473;28;20049;-63
2021/06/16 04:11:07;;;;;;;1.10;1.10;;;25.60;42.60;;;;;;5045205;28;20131;-62
2021/06/16 04:13:35;;;;;;;1.27;1.17;;;25.60;42.50;;;;;;5047947;28;20461;-62
2021/06/16 04:16:03;;;;;;;1.60;1.42;;;25.60;42.40;;;;;;5048075;28;20128;-62
2021/06/16 04:18:32;;;;;;;1.30;1.20;;;25.60;42.40;;;;;;5046965;28;20049;-62
2021/06/16 04:21:01;;;;;;;1.08;1.08;;;25.60;42.30;;;;;;5045900;28;20055;-62
2021/06/16 04:23:30;;;;;;;1.20;1.20;;;25.70;42.30;;;;;;5046728;28;20123;-62
2021/06/16 04:25:57;;;;;;;1.40;1.30;;;25.70;42.30;;;;;;5044357;28;20072;-62
2021/06/16 04:28:24;;;;;;;1.60;1.45;;;25.70;42.20;;;;;;5047087;28;20133;-62
2021/06/16 04:30:51;;;;;;;1.63;1.50;;;25.70;42.10;;;;;;5046915;28;20041;-62
2021/06/16 04:33:19;;;;;;;1.60;1.40;;;25.80;42.10;;;;;;5046197;28;20509;-62
2021/06/16 04:35:47;;;;;;;1.23;1.13;;;25.80;42.00;;;;;;5046503;28;20147;-62
2021/06/16 04:38:14;;;;;;;1.13;1.13;;;25.80;41.90;;;;;;5047619;28;20065;-62
2021/06/16 04:40:41;;;;;;;1.45;1.30;;;25.90;41.90;;;;;;5046770;28;20216;-62
2021/06/16 04:43:08;;;;;;;1.40;1.27;;;25.90;41.80;;;;;;5046698;28;20045;-62
2021/06/16 04:45:35;;;;;;;1.17;1.13;;;25.90;41.70;;;;;;5047403;28;20084;-62
2021/06/16 04:48:06;;;;;;;1.30;1.20;;;26.00;41.70;;;;;;5046071;28;20159;-62
2021/06/16 04:50:33;;;;;;;1.60;1.50;;;26.00;41.60;;;;;;5046236;28;20052;-62
2021/06/16 04:53:00;;;;;;;1.50;1.40;;;26.00;41.50;;;;;;5044797;28;20045;-62
2021/06/16 04:55:27;;;;;;;1.40;1.30;;;26.10;41.50;;;;;;5044677;28;20049;-62
2021/06/16 04:57:55;;;;;;;1.67;1.40;;;26.10;41.40;;;;;;5045432;28;20448;-62
2021/06/16 05:00:22;;;;;;;1.40;1.30;;;26.10;41.40;;;;;;5044408;28;20632;-62
2021/06/16 05:02:54;;;;;;;1.00;1.00;;;26.10;41.40;;;;;;5046313;28;20045;-62
2021/06/16 05:05:23;;;;;;;1.30;1.20;;;26.20;41.40;;;;;;5046223;28;20136;-62
2021/06/16 05:07:50;;;;;;;1.48;1.38;;;26.20;41.40;;;;;;5046392;28;20045;-62
2021/06/16 05:10:17;;;;;;;1.83;1.73;;;26.20;41.30;;;;;;5046276;28;20135;-62
2021/06/16 05:12:45;;;;;;;1.42;1.35;;;26.20;41.30;;;;;;5046035;28;20045;-62
2021/06/16 05:15:13;;;;;;;1.30;1.20;;;26.30;41.40;;;;;;5041665;28;20494;-62
2021/06/16 05:17:42;;;;;;;1.10;1.10;;;26.30;41.30;;;;;;5045589;28;20041;-62
2021/06/16 05:20:11;;;;;;;1.65;1.42;;;26.30;41.30;;;;;;5037168;28;20080;-62
2021/06/16 05:22:40;;;;;;;1.52;1.42;;;26.30;41.20;;;;;;5042163;28;20736;-62
2021/06/16 05:25:10;;;;;;;1.30;1.20;;;26.30;41.30;;;;;;5043867;28;20132;-65
2021/06/16 05:27:38;;;;;;;3.03;1.67;;;26.30;41.40;;;;;;5042700;28;20580;-64
2021/06/16 05:30:06;;;;;;;1.75;1.65;;;26.30;41.40;;;;;;5045424;28;20099;-65
2021/06/16 05:32:36;;;;;;;1.38;1.27;;;26.30;41.40;;;;;;5043778;28;20056;-64
2021/06/16 05:35:05;;;;;;;1.58;1.48;;;26.30;41.40;;;;;;5041741;28;20051;-66
2021/06/16 05:37:32;;;;;;;1.60;1.50;;;26.40;41.40;;;;;;5038478;28;20037;-65
2021/06/16 05:39:59;;;;;;;1.60;1.50;;;26.40;41.40;;;;;;5042882;28;20103;-66
2021/06/16 05:42:26;;;;;;;1.85;1.52;;;26.40;41.40;;;;;;5036348;28;20468;-63
2021/06/16 05:44:54;;;;;;;1.40;1.30;;;26.40;41.50;;;;;;5039734;28;20080;-65
2021/06/16 05:47:21;;;;;;;3.78;2.10;;;26.40;41.60;;;;;;5034433;28;20049;-62
2021/06/16 05:49:48;;;;;;;6.07;2.78;;;26.40;42.10;;;;;;5039152;28;20053;-62
2021/06/16 05:52:15;;;;;;;4.60;2.83;;;26.40;42.30;;;;;;5029998;28;20073;-61
2021/06/16 05:54:43;;;;;;;3.28;2.97;;;26.40;42.50;;;;;;5023928;28;20507;-61
2021/06/16 05:57:10;;;;;;;3.08;2.75;;;26.40;42.60;;;;;;5039650;28;20068;-61
2021/06/16 05:59:41;;;;;;;4.63;3.28;;;26.40;42.70;;;;;;5032245;28;20049;-62
2021/06/16 06:02:09;;;;;;;9.25;3.10;;;26.40;42.70;;;;;;5038752;28;20153;-62
2021/06/16 06:04:36;;;;;;;3.70;2.88;;;26.40;42.70;;;;;;5036849;28;20053;-62
2021/06/16 06:07:03;;;;;;;4.43;3.10;;;26.40;42.80;;;;;;5037810;28;20527;-62
2021/06/16 06:09:31;;;;;;;3.58;2.78;;;26.40;42.70;;;;;;5032401;28;20124;-61
2021/06/16 06:11:59;;;;;;;7.88;3.50;;;26.40;42.60;;;;;;5039065;28;20514;-62
2021/06/16 06:14:26;;;;;;;3.78;2.85;;;26.40;42.50;;;;;;5036725;28;20501;-61
2021/06/16 06:16:53;;;;;;;4.43;2.95;;;26.40;42.40;;;;;;5039867;28;20114;-61
2021/06/16 06:19:21;;;;;;;8.98;3.97;;;26.40;42.30;;;;;;5037485;28;20053;-61
2021/06/16 06:21:48;;;;;;;5.95;4.05;;;26.50;42.30;;;;;;5040434;28;20386;-62
2021/06/16 06:24:15;;;;;;;4.65;3.22;;;26.50;42.50;;;;;;5035126;28;20061;-60
2021/06/16 06:26:42;;;;;;;4.72;3.55;;;26.50;42.40;;;;;;5035606;28;20148;-64
2021/06/16 06:29:09;;;;;;;6.28;3.72;;;26.50;42.30;;;;;;5034728;28;20059;-65
2021/06/16 06:31:37;;;;;;;8.73;3.42;;;26.50;42.20;;;;;;5036299;28;20040;-65
2021/06/16 06:34:04;;;;;;;4.30;3.90;;;26.60;42.10;;;;;;5040100;28;20053;-66
2021/06/16 06:36:31;;;;;;;7.90;4.07;;;26.60;42.10;;;;;;5037004;28;20163;-65
2021/06/16 06:38:59;;;;;;;9.55;3.75;;;26.70;42.60;;;;;;5038062;28;20076;-64
2021/06/16 06:41:26;;;;;;;5.35;3.78;;;26.60;42.00;;;;;;5039952;28;20037;-63
2021/06/16 06:43:54;;;;;;;7.32;4.43;;;26.70;42.10;;;;;;5035310;28;20356;-63
2021/06/16 06:46:21;;;;;;;5.70;3.72;;;26.70;42.20;;;;;;5041136;28;20146;-62
2021/06/16 06:48:48;;;;;;;7.63;3.63;;;26.70;42.00;;;;;;5038497;28;20053;-61
2021/06/16 06:51:16;;;;;;;7.25;3.80;;;26.70;42.00;;;;;;5042489;28;20132;-60
2021/06/16 06:53:43;;;;;;;9.23;3.92;;;26.70;41.70;;;;;;5043005;28;20347;-61
2021/06/16 06:56:10;;;;;;;5.68;3.83;;;26.70;41.50;;;;;;5038807;28;20041;-60
2021/06/16 06:58:37;;;;;;;7.60;3.95;;;26.70;41.50;;;;;;5042397;28;20065;-62
2021/06/16 07:01:04;;;;;;;8.98;4.00;;;26.70;41.50;;;;;;5040267;28;20132;-62
2021/06/16 07:03:33;;;;;;;5.43;3.20;;;26.70;41.60;;;;;;5043717;28;20140;-61
2021/06/16 07:06:00;;;;;;;6.20;3.20;;;26.80;41.70;;;;;;5041909;28;20057;-61
2021/06/16 07:08:29;;;;;;;6.22;3.22;;;26.80;41.70;;;;;;5038781;28;20134;-62
2021/06/16 07:10:56;;;;;;;6.70;3.10;;;26.80;41.70;;;;;;5038376;28;20445;-61
2021/06/16 07:13:23;;;;;;;6.18;3.63;;;26.70;41.90;;;;;;5044271;28;20060;-61
2021/06/16 07:16:07;;;;;;;3.90;3.22;;;26.70;42.10;;;;;;5041048;28;20135;-62
2021/06/16 07:18:35;;;;;;;8.55;3.88;;;26.60;42.30;;;;;;5042202;28;20059;-61
2021/06/16 07:21:03;;;;;;;11.85;4.82;;;26.50;42.70;;;;;;5037914;28;20139;-61
2021/06/16 07:23:30;;;;;;;9.07;5.35;;;26.40;42.80;;;;;;5040619;28;20052;-62
2021/06/16 07:25:58;;;;;;;7.43;4.20;;;26.30;43.20;;;;;;5034921;28;20084;-62
2021/06/16 07:28:25;;;;;;;6.40;3.85;;;26.10;43.50;;;;;;5042627;28;20063;-61
2021/06/16 07:30:52;;;;;;;7.55;4.28;;;25.90;43.80;;;;;;5039385;28;20079;-61
2021/06/16 07:33:20;;;;;;;8.65;4.10;;;25.70;44.10;;;;;;5038637;28;20114;-61
2021/06/16 07:35:50;;;;;;;;;;;25.60;44.50;;;;;;5039440;28;20053;-61
2021/06/16 07:38:17;;;;;;;10.25;4.35;;;25.40;44.90;;;;;;5042181;28;19925;-61
2021/06/16 07:40:44;;;;;;;6.38;4.50;;;25.20;45.30;;;;;;5039118;28;20076;-61
2021/06/16 07:43:12;;;;;;;7.78;4.75;;;25.10;45.70;;;;;;5039997;28;20098;-62
2021/06/16 07:45:39;;;;;;;9.93;4.50;;;24.90;45.90;;;;;;5041821;28;20084;-62
2021/06/16 07:48:06;;;;;;;12.98;4.22;;;24.80;46.30;;;;;;5039495;28;20052;-61
2021/06/16 07:50:36;;;;;;;6.53;4.65;;;24.70;46.50;;;;;;5037622;28;20041;-60
2021/06/16 07:53:05;;;;;;;6.07;4.47;;;24.60;46.50;;;;;;5041919;28;20047;-61
2021/06/16 07:55:33;;;;;;;7.28;3.70;;;24.50;47.00;;;;;;5041291;28;20136;-59
2021/06/16 07:58:02;;;;;;;8.07;3.90;;;24.40;47.30;;;;;;5041908;28;20059;-60
2021/06/16 08:00:31;;;;;;;8.35;5.03;;;24.30;47.50;;;;;;5035773;28;20544;-60
2021/06/16 08:02:58;;;;;;;8.23;4.05;;;24.30;47.60;;;;;;5042048;28;20049;-61
2021/06/16 08:05:27;;;;;;;7.45;4.93;;;24.20;47.80;;;;;;5041791;28;20049;-61
2021/06/16 08:07:54;;;;;;;4.90;4.22;;;24.10;48.00;;;;;;5037100;28;20547;-62
2021/06/16 08:10:21;;;;;;;7.38;4.60;;;24.10;48.20;;;;;;5036774;28;20059;-64
2021/06/16 08:12:48;;;;;;;5.80;3.97;;;24.00;48.30;;;;;;5043117;28;20546;-62
2021/06/16 08:15:16;;;;;;;12.10;4.35;;;24.00;48.60;;;;;;5043698;28;20045;-61
2021/06/16 08:17:43;;;;;;;6.45;4.60;;;23.90;49.40;;;;;;5042543;28;20057;-62
2021/06/16 08:20:11;;;;;;;6.72;3.90;;;23.90;48.80;;;;;;5036536;28;20136;-61
2021/06/16 08:22:39;;;;;;;7.63;4.38;;;23.90;48.90;;;;;;5026184;28;20040;-61
2021/06/16 08:25:10;;;;;;;6.90;4.47;;;23.80;49.00;;;;;;5033731;28;20151;-61
2021/06/16 08:27:40;;;;;;;7.85;4.80;;;23.80;49.10;;;;;;5041931;28;20041;-62
2021/06/16 08:30:08;;;;;;;5.15;4.43;;;23.80;49.20;;;;;;5037932;28;20056;-61
2021/06/16 08:32:36;;;;;;;7.18;5.05;;;23.80;49.40;;;;;;5040989;28;20045;-61
2021/06/16 08:35:04;;;;;;;8.02;4.55;;;23.80;49.50;;;;;;5042364;28;20558;-62
2021/06/16 08:37:31;;;;;;;6.97;4.30;;;23.80;49.50;;;;;;5025688;28;20135;-62
2021/06/16 08:40:00;;;;;;;6.80;4.88;;;23.70;49.40;;;;;;5038456;28;20156;-61
2021/06/16 08:42:28;;;;;;;8.98;4.60;;;23.70;49.50;;;;;;5040395;28;20055;-61
2021/06/16 08:44:57;;;;;;;7.88;4.80;;;23.70;49.60;;;;;;5034636;28;20107;-60
2021/06/16 08:47:25;;;;;;;7.10;4.75;;;23.70;49.60;;;;;;5040339;28;20045;-61
2021/06/16 08:49:54;;;;;;;9.43;4.55;;;23.70;49.70;;;;;;5018949;28;20102;-61
2021/06/16 08:52:22;;;;;;;7.00;4.53;;;23.70;50.00;;;;;;5038116;28;20051;-62
2021/06/16 08:54:49;;;;;;;7.20;4.78;;;23.60;49.90;;;;;;5042175;28;20134;-61
2021/06/16 08:57:16;;;;;;;4.72;4.13;;;23.70;49.90;;;;;;5039406;28;20573;-61
2021/06/16 08:59:43;;;;;;;6.85;4.57;;;23.60;49.90;;;;;;5030093;28;20045;-62
2021/06/16 09:02:11;;;;;;;8.00;4.70;;;23.60;49.90;;;;;;5035287;28;20522;-60
2021/06/16 09:04:47;;;;;;;7.90;5.68;;;23.60;49.90;;;;;;5041541;28;20118;-62
2021/06/16 09:07:19;;;;;;;8.25;4.65;;;23.60;50.10;;;;;;5041673;28;20119;-61
2021/06/16 09:09:49;;;;;;;6.63;4.75;;;23.60;50.20;;;;;;5035317;28;20095;-60
2021/06/16 09:12:30;;;;;;;7.72;5.03;;;23.60;50.40;;;;;;5038129;28;20441;-61
2021/06/16 09:14:58;;;;;;;7.88;5.20;;;23.60;50.20;;;;;;5041828;28;20045;-60
2021/06/16 09:17:26;;;;;;;8.65;4.95;;;23.60;50.30;;;;;;5041836;28;20055;-61
2021/06/16 09:19:56;;;;;;;9.45;5.57;;;23.60;50.30;;;;;;5038901;28;20526;-60
2021/06/16 09:22:28;;;;;;;;;;;23.60;50.30;;;;;;5038201;28;20057;-61
2021/06/16 09:24:57;;;;;;;7.95;5.05;;;23.60;50.30;;;;;;5042627;28;19927;-63
2021/06/16 09:27:44;;;;;;;11.75;5.25;;;23.60;50.30;;;;;;5040276;28;20159;-61
2021/06/16 09:30:33;;;;;;;9.93;5.43;;;23.60;50.30;;;;;;5037431;28;20525;-60
2021/06/16 09:33:07;;;;;;;6.80;5.13;;;23.60;50.40;;;;;;5041228;28;20099;-61
2021/06/16 09:35:38;;;;;;;8.93;5.53;;;23.60;50.50;;;;;;5037150;28;20049;-61
2021/06/16 09:38:11;;;;;;;;;;;23.60;50.40;;;;;;5041606;28;20130;-61
2021/06/16 09:40:44;;;;;;;7.13;5.00;;;23.60;50.30;;;;;;5037753;28;19940;-63
2021/06/16 09:43:15;;;;;;;7.00;5.15;;;23.60;50.30;;;;;;5022537;28;20045;-60
2021/06/16 09:45:45;;;;;;;7.55;5.05;;;23.60;50.30;;;;;;5040519;28;20045;-61
2021/06/16 09:48:36;;;;;;;7.60;5.28;;;23.60;50.30;;;;;;5041015;28;20482;-60
2021/06/16 09:51:21;;;;;;;8.95;4.88;;;23.60;50.30;;;;;;5039958;28;20064;-61
2021/06/16 09:54:18;;;;;;;8.38;5.20;;;23.60;50.40;;;;;;5038328;28;20125;-61
2021/06/16 09:56:59;;;;;;;9.75;5.93;;;23.60;50.40;;;;;;5039439;28;20131;-60
2021/06/16 09:59:46;;;;;;;7.22;5.07;;;23.60;50.40;;;;;;5040227;28;20049;-61
2021/06/16 10:02:22;;;;;;;9.82;5.07;;;23.60;50.40;;;;;;5041340;28;20263;-62
2021/06/16 10:04:57;;;;;;;7.65;4.85;;;23.60;50.50;;;;;;5040302;28;20052;-60
2021/06/16 10:07:29;;;;;;;9.43;5.65;;;23.60;50.50;;;;;;5040987;28;20499;-59
2021/06/16 10:10:03;;;;;;;8.55;5.53;;;23.60;50.30;;;;;;5040148;28;20469;-60
2021/06/16 10:12:33;;;;;;;8.45;5.50;;;23.60;50.30;;;;;;5041745;28;20087;-59
2021/06/16 10:15:10;;;;;;;8.48;5.50;;;23.70;51.30;;;;;;5040024;28;20047;-60
2021/06/16 10:17:38;;;;;;;6.90;5.30;;;23.70;51.30;;;;;;5042770;28;20489;-62
2021/06/16 10:20:09;;;;;;;9.48;5.60;;;23.70;51.40;;;;;;5042374;28;20111;-61
2021/06/16 10:22:36;;;;;;;8.45;6.00;;;23.70;51.80;;;;;;5045369;28;20252;-59
2021/06/16 10:25:05;;;;;;;9.13;5.63;;;23.70;51.50;;;;;;5044684;28;20139;-59
2021/06/16 10:27:37;;;;;;;9.15;6.22;;;23.70;51.90;;;;;;5043619;28;20053;-58
2021/06/16 10:30:12;;;;;;;8.88;5.85;;;23.70;52.00;;;;;;5045506;28;20047;-60
2021/06/16 10:32:42;;;;;;;9.32;6.00;;;23.70;52.10;;;;;;5045513;28;20071;-61
2021/06/16 10:35:13;;;;;;;11.48;6.55;;;23.70;52.10;;;;;;5044994;28;20147;-59
2021/06/16 10:37:43;;;;;;;8.85;5.95;;;23.70;52.00;;;;;;5041161;28;20048;-59
2021/06/16 10:40:26;;;;;;;11.80;6.13;;;23.70;52.10;;;;;;5043940;28;20158;-60
2021/06/16 10:43:16;;;;;;;10.43;6.40;;;23.70;51.80;;;;;;5045081;28;20052;-61
2021/06/16 10:45:50;;;;;;;11.03;6.97;;;23.70;51.40;;;;;;5043739;28;20067;-60
2021/06/16 10:48:17;;;;;;;11.95;6.50;;;23.70;51.20;;;;;;5043521;28;20380;-60
2021/06/16 10:51:01;;;;;;;8.05;5.78;;;23.70;51.10;;;;;;5041914;28;20131;-60
2021/06/16 10:53:28;;;;;;;10.55;6.43;;;23.70;50.80;;;;;;5046534;28;20048;-61
2021/06/16 10:56:06;;;;;;;10.57;6.13;;;23.70;51.10;;;;;;5046056;28;20125;-60
2021/06/16 10:58:44;;;;;;;10.38;6.47;;;23.60;50.90;;;;;;5043087;28;20080;-60
2021/06/16 11:01:17;;;;;;;7.45;6.00;;;23.70;50.80;;;;;;5026135;28;20087;-60
2021/06/16 11:04:05;;;;;;;9.77;5.85;;;23.60;50.70;;;;;;5041385;28;20049;-62
2021/06/16 11:06:37;;;;;;;10.88;6.05;;;23.60;50.90;;;;;;5042034;28;20068;-60
2021/06/16 11:09:14;;;;;;;10.23;6.35;;;23.60;51.10;;;;;;5039246;28;20048;-61
2021/06/16 11:12:06;;;;;;;8.98;5.80;;;23.60;51.60;;;;;;5042526;28;20083;-61
2021/06/16 11:14:46;;;;;;;12.45;6.15;;;23.60;51.80;;;;;;5040877;28;20491;-58
2021/06/16 11:17:38;;;;;;;8.68;5.75;;;23.60;51.90;;;;;;5040614;28;20064;-57
2021/06/16 11:20:18;;;;;;;7.25;5.50;;;23.60;51.70;;;;;;5038548;28;20148;-62
2021/06/16 11:22:55;;;;;;;9.68;6.22;;;23.60;51.70;;;;;;5042831;28;20478;-62
2021/06/16 11:25:28;;;;;;;9.18;5.80;;;23.60;51.80;;;;;;5044398;28;20049;-62
2021/06/16 11:28:18;;;;;;;8.07;5.75;;;23.60;51.60;;;;;;5037674;28;20139;-61
2021/06/16 11:31:02;;;;;;;13.68;6.32;;;23.60;51.60;;;;;;5039756;28;20067;-60
2021/06/16 11:33:35;;;;;;;8.70;5.45;;;23.60;51.30;;;;;;5042216;28;20049;-61
2021/06/16 11:36:06;;;;;;;10.38;5.43;;;23.60;51.10;;;;;;5041865;28;20049;-61
2021/06/16 11:38:52;;;;;;;10.55;5.72;;;23.60;51.20;;;;;;5040003;28;20080;-61
2021/06/16 11:41:27;;;;;;;8.15;5.07;;;23.60;51.80;;;;;;5043334;28;20045;-61
2021/06/16 11:44:10;;;;;;;8.38;5.85;;;23.60;52.10;;;;;;5043324;28;20125;-61
2021/06/16 11:46:41;;;;;;;12.27;5.80;;;23.70;52.30;;;;;;5039495;28;20175;-61
2021/06/16 11:49:20;;;;;;;12.07;5.53;;;23.70;53.30;;;;;;5040368;28;20128;-63
2021/06/16 11:51:54;;;;;;;8.57;5.50;;;23.70;53.50;;;;;;5043046;28;20128;-61
2021/06/16 11:54:33;;;;;;;8.60;5.50;;;23.70;54.10;;;;;;5041757;28;20904;-65
2021/06/16 11:57:11;;;;;;;10.73;6.18;;;23.70;54.30;;;;;;5041378;28;20055;-63
2021/06/16 11:59:47;;;;;;;8.55;5.53;;;23.80;54.60;;;;;;5039738;28;20057;-63
2021/06/16 12:02:26;;;;;;;10.38;6.22;;;23.80;54.40;;;;;;5036451;28;20136;-64
2021/06/16 12:05:12;;;;;;;7.05;5.13;;;23.80;54.20;;;;;;5040270;28;20041;-68
2021/06/16 12:07:50;;;;;;;16.10;5.82;;;23.80;54.00;;;;;;5039585;28;20045;-70
2021/06/16 12:10:23;;;;;;;11.18;6.60;;;23.80;53.90;;;;;;5038380;28;20132;-63
2021/06/16 12:13:07;;;;;;;8.15;6.15;;;23.90;54.20;;;;;;5040414;28;20048;-68
2021/06/16 12:15:37;;;;;;;8.88;5.50;;;23.90;53.80;;;;;;5041208;28;20170;-66
2021/06/16 12:18:07;;;;;;;11.50;5.72;;;23.80;53.50;;;;;;5039166;28;20045;-66
2021/06/16 12:20:39;;;;;;;9.70;5.10;;;23.90;53.50;;;;;;5041660;28;20513;-64
2021/06/16 12:23:28;;;;;;;8.60;5.72;;;23.90;53.20;;;;;;5042474;28;20136;-65
2021/06/16 12:26:13;;;;;;;8.98;5.35;;;23.90;53.60;;;;;;5037993;28;20128;-64
2021/06/16 12:28:52;;;;;;;10.68;6.55;;;23.90;53.40;;;;;;5038992;28;20500;-65
2021/06/16 12:31:29;;;;;;;9.45;5.00;;;23.90;53.20;;;;;;5040394;28;20127;-61
2021/06/16 12:34:03;;;;;;;10.85;4.78;;;23.90;53.20;;;;;;5038546;28;20231;-61
2021/06/16 12:36:33;;;;;;;9.05;5.05;;;24.00;53.30;;;;;;5040916;28;20798;-68
2021/06/16 12:39:16;;;;;;;14.13;5.28;;;24.00;53.20;;;;;;5038518;28;20053;-63
2021/06/16 12:41:51;;;;;;;8.05;4.85;;;24.10;53.00;;;;;;5039581;28;20056;-61
2021/06/16 12:44:27;;;;;;;11.15;6.32;;;24.10;53.70;;;;;;5041469;28;20132;-65
2021/06/16 12:47:07;;;;;;;6.32;5.00;;;24.10;53.10;;;;;;5038064;28;20072;-63
2021/06/16 12:49:55;;;;;;;10.90;5.25;;;24.10;53.30;;;;;;5037615;28;20128;-63
2021/06/16 12:52:36;;;;;;;8.85;4.85;;;24.20;53.00;;;;;;5022890;28;20059;-65
2021/06/16 12:55:16;;;;;;;15.57;4.75;;;24.10;53.10;;;;;;5043575;28;20131;-63
2021/06/16 12:57:53;;;;;;;8.57;4.50;;;24.20;53.30;;;;;;5040889;28;20119;-65
2021/06/16 13:00:31;;;;;;;5.70;4.22;;;24.20;53.40;;;;;;5036085;28;20139;-64
2021/06/16 13:03:14;;;;;;;12.27;5.22;;;24.20;53.40;;;;;;5037893;28;20051;-62
2021/06/16 13:05:49;;;;;;;8.20;4.78;;;24.20;53.50;;;;;;5040283;28;20063;-64
2021/06/16 13:08:33;;;;;;;9.60;4.93;;;24.20;53.50;;;;;;5037834;28;20045;-65